createdAt,value
2022-09-25T00:01:19.887Z,101242.78
2022-09-25T00:03:48.015Z,101249.75
2022-09-25T00:06:18.486Z,101243.59
2022-09-25T00:08:46.590Z,101250.56
2022-09-25T00:11:17.217Z,101255.06
2022-09-25T00:13:46.082Z,101260.41
2022-09-25T00:16:18.950Z,101256.13
2022-09-25T00:19:05.049Z,101257.75
2022-09-25T00:21:35.212Z,101249.16
2022-09-25T00:24:06.098Z,101251.81
2022-09-25T00:26:37.474Z,101252.41
2022-09-25T00:29:07.063Z,101250.56
2022-09-25T00:31:35.669Z,101251.38
2022-09-25T00:34:05.614Z,101250.56
2022-09-25T00:36:34.119Z,101251.38
2022-09-25T00:39:01.462Z,101252.41
2022-09-25T00:41:33.625Z,101241.97
2022-09-25T00:44:23.970Z,101245.88
2022-09-25T00:46:52.715Z,101244.22
2022-09-25T00:49:24.620Z,101245.28
2022-09-25T00:51:58.808Z,101242.81
2022-09-25T00:54:31.537Z,101248.97
2022-09-25T00:57:06.543Z,101250.81
2022-09-25T00:59:39.583Z,101251.88
2022-09-25T01:02:14.379Z,101244.06
2022-09-25T01:04:48.433Z,101252.06
2022-09-25T01:07:16.870Z,101247.34
2022-09-25T01:09:45.494Z,101248.97
2022-09-25T01:12:12.881Z,101254.91
2022-09-25T01:14:41.500Z,101256.16
2022-09-25T01:17:22.027Z,101255.53
2022-09-25T01:20:08.395Z,101246.13
2022-09-25T01:22:55.297Z,101244.50
2022-09-25T01:25:39.642Z,101248.19
2022-09-25T01:28:53.958Z,101244.94
2022-09-25T01:31:29.875Z,101244.09
2022-09-25T01:34:05.960Z,101244.94
2022-09-25T01:36:41.667Z,101250.84
2022-09-25T01:39:21.034Z,101243.69
2022-09-25T01:41:55.028Z,101251.47
2022-09-25T01:44:30.473Z,101262.13
2022-09-25T01:47:07.473Z,101253.94
2022-09-25T01:49:42.516Z,101254.31
2022-09-25T01:52:17.206Z,101249.56
2022-09-25T01:54:51.825Z,101251.81
2022-09-25T01:57:26.847Z,101256.72
2022-09-25T02:00:04.756Z,101255.25
2022-09-25T02:02:38.152Z,101252.97
2022-09-25T02:05:14.455Z,101252.75
2022-09-25T02:07:48.102Z,101247.00
2022-09-25T02:10:21.839Z,101247.59
2022-09-25T02:12:56.939Z,101254.34
2022-09-25T02:15:31.109Z,101247.38
2022-09-25T02:18:21.807Z,101250.03
2022-09-25T02:21:01.348Z,101251.72
2022-09-25T02:23:40.205Z,101256.03
2022-09-25T02:26:14.655Z,101260.34
2022-09-25T02:28:43.379Z,101254.94
2022-09-25T02:31:17.275Z,101255.78
2022-09-25T02:33:44.723Z,101247.31
2022-09-25T02:36:19.137Z,101256.97
2022-09-25T02:38:50.259Z,101239.69
2022-09-25T02:41:36.753Z,101240.13
2022-09-25T02:44:17.732Z,101236.88
2022-09-25T02:47:03.210Z,101239.75
2022-09-25T02:49:40.460Z,101240.78
2022-09-25T02:52:16.472Z,101248.78
2022-09-25T02:54:53.347Z,101241.81
2022-09-25T02:57:31.543Z,101245.53
2022-09-25T03:00:07.223Z,101250.84
2022-09-25T03:02:38.958Z,101240.78
2022-09-25T03:05:12.555Z,101246.13
2022-09-25T03:07:59.327Z,101235.22
2022-09-25T03:10:29.181Z,101248.78
2022-09-25T03:12:56.402Z,101249.59
2022-09-25T03:15:25.029Z,101244.28
2022-09-25T03:17:53.660Z,101239.53
2022-09-25T03:20:20.880Z,101241.38
2022-09-25T03:22:48.183Z,101238.72
2022-09-25T03:25:16.169Z,101233.97
2022-09-25T03:27:43.451Z,101237.25
2022-09-25T03:30:11.845Z,101241.31
2022-09-25T03:32:39.100Z,101235.97
2022-09-25T03:35:09.174Z,101235.63
2022-09-25T03:37:36.409Z,101240.34
2022-09-25T03:40:04.901Z,101243.22
2022-09-25T03:42:32.265Z,101232.78
2022-09-25T03:44:59.541Z,101238.34
2022-09-25T03:47:26.839Z,101238.53
2022-09-25T03:49:54.137Z,101235.06
2022-09-25T03:52:22.762Z,101234.44
2022-09-25T03:54:50.000Z,101236.09
2022-09-25T03:57:17.219Z,101236.09
2022-09-25T03:59:44.467Z,101233.66
2022-09-25T04:02:15.692Z,101227.09
2022-09-25T04:04:44.650Z,101238.22
2022-09-25T04:07:12.398Z,101234.13
2022-09-25T04:09:41.039Z,101230.06
2022-09-25T04:12:08.956Z,101239.06
2022-09-25T04:14:36.905Z,101226.78
2022-09-25T04:17:04.311Z,101226.38
2022-09-25T04:19:31.615Z,101219.63
2022-09-25T04:21:58.863Z,101224.38
2022-09-25T04:24:44.517Z,101233.38
2022-09-25T04:27:13.091Z,101234.25
2022-09-25T04:29:42.429Z,101228.34
2022-09-25T04:32:28.450Z,101233.06
2022-09-25T04:34:55.907Z,101232.88
2022-09-25T04:37:26.289Z,101232.28
2022-09-25T04:39:54.102Z,101232.72
2022-09-25T04:42:25.075Z,101234.16
2022-09-25T04:44:53.804Z,101236.63
2022-09-25T04:47:21.332Z,101239.13
2022-09-25T04:49:49.637Z,101237.69
2022-09-25T04:52:19.042Z,101235.22
2022-09-25T04:54:46.958Z,101230.72
2022-09-25T04:57:32.671Z,101232.34
2022-09-25T05:00:06.978Z,101231.53
2022-09-25T05:02:34.725Z,101228.63
2022-09-25T05:05:02.048Z,101227.03
2022-09-25T05:07:29.606Z,101226.19
2022-09-25T05:09:56.854Z,101217.81
2022-09-25T05:12:24.224Z,101230.34
2022-09-25T05:14:51.478Z,101233.41
2022-09-25T05:17:20.088Z,101230.56
2022-09-25T05:19:47.322Z,101230.97
2022-09-25T05:22:15.526Z,101219.13
2022-09-25T05:24:42.732Z,101218.94
2022-09-25T05:27:10.053Z,101224.66
2022-09-25T05:29:38.459Z,101217.72
2022-09-25T05:32:06.666Z,101220.81
2022-09-25T05:34:35.284Z,101226.75
2022-09-25T05:37:03.696Z,101230.06
2022-09-25T05:39:30.939Z,101230.09
2022-09-25T05:41:58.246Z,101227.22
2022-09-25T05:44:28.356Z,101225.19
2022-09-25T05:49:51.479Z,101234.00
2022-09-25T05:52:18.748Z,101229.72
2022-09-25T05:54:46.793Z,101232.56
2022-09-25T05:57:14.046Z,101237.09
2022-09-25T05:59:41.346Z,101228.06
2022-09-25T06:02:12.006Z,101233.00
2022-09-25T06:04:39.266Z,101233.00
2022-09-25T06:07:09.953Z,101237.50
2022-09-25T06:09:37.220Z,101227.88
2022-09-25T06:12:04.913Z,101237.50
2022-09-25T06:14:32.949Z,101232.78
2022-09-25T06:17:00.327Z,101231.75
2022-09-25T06:19:29.818Z,101227.25
2022-09-25T06:22:00.443Z,101230.94
2022-09-25T06:24:29.011Z,101227.66
2022-09-25T06:26:56.262Z,101227.66
2022-09-25T06:29:23.560Z,101233.59
2022-09-25T06:31:53.031Z,101229.91
2022-09-25T06:34:20.293Z,101232.59
2022-09-25T06:36:47.634Z,101239.53
2022-09-25T06:39:14.930Z,101238.50
2022-09-25T06:41:44.053Z,101244.81
2022-09-25T06:44:11.413Z,101246.00
2022-09-25T06:46:38.725Z,101241.00
2022-09-25T06:49:06.101Z,101240.41
2022-09-25T06:51:35.471Z,101241.50
2022-09-25T06:54:03.011Z,101236.88
2022-09-25T06:56:30.322Z,101238.41
2022-09-25T06:58:59.058Z,101245.66
2022-09-25T07:01:26.318Z,101241.03
2022-09-25T07:03:53.643Z,101248.53
2022-09-25T07:06:23.009Z,101247.88
2022-09-25T07:08:52.060Z,101249.28
2022-09-25T07:11:22.077Z,101246.19
2022-09-25T07:13:52.410Z,101255.22
2022-09-25T07:16:23.788Z,101259.38
2022-09-25T07:18:54.248Z,101254.91
2022-09-25T07:21:24.560Z,101251.63
2022-09-25T07:23:52.711Z,101251.44
2022-09-25T07:26:23.365Z,101258.63
2022-09-25T07:28:56.171Z,101251.63
2022-09-25T07:31:27.797Z,101261.50
2022-09-25T07:33:55.967Z,101254.91
2022-09-25T07:36:23.461Z,101261.88
2022-09-25T07:38:52.095Z,101261.06
2022-09-25T07:41:22.648Z,101260.81
2022-09-25T07:44:02.004Z,101264.91
2022-09-25T07:46:44.419Z,101264.28
2022-09-25T07:49:12.775Z,101256.41
2022-09-25T07:51:40.105Z,101251.78
2022-09-25T07:54:08.182Z,101245.59
2022-09-25T07:56:38.020Z,101239.34
2022-09-25T07:59:05.705Z,101248.31
2022-09-25T08:01:33.068Z,101251.50
2022-09-25T08:04:02.214Z,101249.56
2022-09-25T08:06:29.527Z,101254.19
2022-09-25T08:08:58.529Z,101252.19
2022-09-25T08:11:28.023Z,101246.19
2022-09-25T08:13:55.285Z,101253.72
2022-09-25T08:16:23.294Z,101258.91
2022-09-25T08:18:50.871Z,101251.06
2022-09-25T08:21:20.810Z,101254.34
2022-09-25T08:23:51.755Z,101259.22
2022-09-25T08:26:21.508Z,101249.31
2022-09-25T08:28:49.305Z,101248.44
2022-09-25T08:31:16.682Z,101253.84
2022-09-25T08:33:49.340Z,101253.34
2022-09-25T08:36:19.175Z,101246.81
2022-09-25T08:38:46.726Z,101254.75
2022-09-25T08:41:22.170Z,101245.88
2022-09-25T08:44:00.438Z,101245.91
2022-09-25T08:46:59.559Z,101259.28
2022-09-25T08:49:35.002Z,101249.88
2022-09-25T08:52:11.435Z,101251.81
2022-09-25T08:54:43.393Z,101251.13
2022-09-25T08:57:27.251Z,101256.03
2022-09-25T09:00:04.706Z,101248.56
2022-09-25T09:02:40.587Z,101249.00
2022-09-25T09:05:19.467Z,101254.09
2022-09-25T09:07:57.215Z,101254.41
2022-09-25T09:10:36.012Z,101254.09
2022-09-25T09:13:16.616Z,101253.94
2022-09-25T09:15:53.043Z,101252.88
2022-09-25T09:18:24.668Z,101255.72
2022-09-25T09:20:56.232Z,101258.13
2022-09-25T09:23:36.775Z,101251.13
2022-09-25T09:26:09.953Z,101253.41
2022-09-25T09:29:39.511Z,101255.06
2022-09-25T09:32:39.985Z,101256.63
2022-09-25T09:35:33.453Z,101256.59
2022-09-25T09:38:28.407Z,101255.28
2022-09-25T09:41:21.736Z,101256.66
2022-09-25T09:44:15.574Z,101253.16
2022-09-25T09:46:56.608Z,101252.06
2022-09-25T09:49:33.261Z,101251.78
2022-09-25T09:52:10.611Z,101254.22
2022-09-25T09:54:46.571Z,101253.97
2022-09-25T09:57:23.214Z,101251.25
2022-09-25T10:00:02.024Z,101251.47
2022-09-25T10:02:39.823Z,101250.69
2022-09-25T10:05:18.033Z,101253.38
2022-09-25T10:07:49.663Z,101254.75
2022-09-25T10:10:20.065Z,101247.75
2022-09-25T10:12:51.295Z,101243.91
2022-09-25T10:15:30.321Z,101244.56
2022-09-25T10:18:02.032Z,101241.41
2022-09-25T10:20:40.555Z,101228.72
2022-09-25T10:23:32.020Z,101238.34
2022-09-25T10:26:00.910Z,101230.94
2022-09-25T10:28:32.449Z,101238.81
2022-09-25T10:31:02.758Z,101229.06
2022-09-25T10:33:31.958Z,101228.19
2022-09-25T10:35:59.906Z,101229.34
2022-09-25T10:38:39.394Z,101225.25
2022-09-25T10:41:12.332Z,101225.22
2022-09-25T10:44:02.241Z,101229.44
2022-09-25T10:46:51.060Z,101233.22
2022-09-25T10:49:39.338Z,101234.16
2022-09-25T10:52:10.537Z,101221.50
2022-09-25T10:54:44.560Z,101228.31
2022-09-25T10:57:35.353Z,101221.72
2022-09-25T11:00:06.079Z,101230.38
2022-09-25T11:02:40.195Z,101236.41
2022-09-25T11:05:18.171Z,101227.94
2022-09-25T11:07:52.346Z,101239.81
2022-09-25T11:10:22.453Z,101239.25
2022-09-25T11:12:52.576Z,101235.84
2022-09-25T11:15:23.949Z,101246.94
2022-09-25T11:17:54.276Z,101239.63
2022-09-25T11:20:32.734Z,101244.09
2022-09-25T11:23:28.362Z,101242.94
2022-09-25T11:26:06.971Z,101242.09
2022-09-25T11:28:45.313Z,101242.91
2022-09-25T11:31:22.395Z,101254.94
2022-09-25T11:34:01.912Z,101253.59
2022-09-25T11:36:35.469Z,101253.41
2022-09-25T11:39:29.873Z,101259.16
2022-09-25T11:42:07.102Z,101256.03
2022-09-25T11:44:46.124Z,101246.50
2022-09-25T11:47:21.373Z,101248.00
2022-09-25T11:49:53.290Z,101243.69
2022-09-25T11:52:32.465Z,101245.56
2022-09-25T11:55:47.070Z,101237.78
2022-09-25T11:58:47.373Z,101233.56
2022-09-25T12:01:29.600Z,101228.88
2022-09-25T12:04:23.160Z,101228.63
2022-09-25T12:07:25.728Z,101219.28
2022-09-25T12:10:19.177Z,101220.47
2022-09-25T12:12:59.252Z,101217.38
2022-09-25T12:15:48.096Z,101216.09
2022-09-25T12:18:42.306Z,101217.47
2022-09-25T12:21:19.429Z,101210.59
2022-09-25T12:23:57.980Z,101205.91
2022-09-25T12:26:33.917Z,101206.56
2022-09-25T12:29:26.072Z,101196.63
2022-09-25T12:32:04.663Z,101186.91
2022-09-25T12:34:59.081Z,101195.72
2022-09-25T12:37:40.235Z,101187.41
2022-09-25T12:40:22.926Z,101191.31
2022-09-25T12:42:59.056Z,101185.22
2022-09-25T12:45:36.258Z,101187.19
2022-09-25T12:48:18.787Z,101183.44
2022-09-25T12:51:00.415Z,101177.56
2022-09-25T12:53:36.642Z,101171.63
2022-09-25T12:56:13.650Z,101175.81
2022-09-25T12:58:57.490Z,101172.94
2022-09-25T13:01:33.395Z,101168.53
2022-09-25T13:04:23.112Z,101170.00
2022-09-25T13:07:04.024Z,101166.09
2022-09-25T13:09:42.223Z,101160.31
2022-09-25T13:12:24.914Z,101163.13
2022-09-25T13:14:58.617Z,101160.34
2022-09-25T13:17:26.143Z,101168.41
2022-09-25T13:19:53.560Z,101164.09
2022-09-25T13:22:25.136Z,101160.34
2022-09-25T13:25:02.826Z,101157.66
2022-09-25T13:27:42.614Z,101152.91
2022-09-25T13:30:22.743Z,101152.41
2022-09-25T13:32:53.627Z,101158.94
2022-09-25T13:35:23.877Z,101144.44
2022-09-25T13:37:56.814Z,101148.75
2022-09-25T13:40:43.089Z,101147.19
2022-09-25T13:43:23.237Z,101142.22
2022-09-25T13:46:26.058Z,101157.50
2022-09-25T13:48:55.448Z,101149.53
2022-09-25T13:51:36.250Z,101150.66
2022-09-25T13:54:25.347Z,101153.44
2022-09-25T13:56:55.333Z,101151.94
2022-09-25T13:59:38.056Z,101146.91
2022-09-25T14:02:44.187Z,101143.81
2022-09-25T14:05:19.151Z,101144.25
2022-09-25T14:07:49.994Z,101139.59
2022-09-25T14:10:19.130Z,101133.25
2022-09-25T14:12:49.738Z,101138.81
2022-09-25T14:15:24.552Z,101131.53
2022-09-25T14:17:57.274Z,101135.59
2022-09-25T14:20:36.225Z,101132.34
2022-09-25T14:23:13.886Z,101132.84
2022-09-25T14:25:44.702Z,101120.38
2022-09-25T14:28:22.486Z,101119.19
2022-09-25T14:31:19.235Z,101114.47
2022-09-25T14:34:14.688Z,101108.72
2022-09-25T14:37:03.780Z,101113.69
2022-09-25T14:39:44.716Z,101102.31
2022-09-25T14:42:52.220Z,101105.59
2022-09-25T14:45:42.835Z,101099.00
2022-09-25T14:48:14.959Z,101092.25
2022-09-25T14:50:49.737Z,101097.75
2022-09-25T14:53:25.970Z,101088.56
2022-09-25T14:55:55.103Z,101093.13
2022-09-25T14:58:28.839Z,101094.00
2022-09-25T15:01:04.832Z,101088.34
2022-09-25T15:03:37.537Z,101086.38
2022-09-25T15:06:06.433Z,101085.16
2022-09-25T15:08:40.931Z,101084.94
2022-09-25T15:11:13.674Z,101086.03
2022-09-25T15:13:42.397Z,101086.34
2022-09-25T15:16:35.997Z,101089.69
2022-09-25T15:19:13.807Z,101087.00
2022-09-25T15:21:43.988Z,101090.53
2022-09-25T15:24:18.092Z,101080.66
2022-09-25T15:26:50.212Z,101090.94
2022-09-25T15:29:22.895Z,101086.16
2022-09-25T15:31:51.952Z,101080.03
2022-09-25T15:34:25.761Z,101072.31
2022-09-25T15:36:54.547Z,101075.66
2022-09-25T15:39:25.574Z,101061.81
2022-09-25T15:41:53.806Z,101073.84
2022-09-25T15:44:23.419Z,101060.19
2022-09-25T15:46:53.711Z,101070.69
2022-09-25T15:49:29.214Z,101064.50
2022-09-25T15:52:01.384Z,101059.38
2022-09-25T15:54:38.324Z,101060.13
2022-09-25T15:57:11.318Z,101065.13
2022-09-25T16:00:03.204Z,101069.63
2022-09-25T16:02:54.413Z,101064.06
2022-09-25T16:05:30.046Z,101058.50
2022-09-25T16:08:27.508Z,101056.69
2022-09-25T16:11:17.391Z,101066.28
2022-09-25T16:13:48.745Z,101064.63
2022-09-25T16:16:24.881Z,101066.72
2022-09-25T16:18:54.576Z,101071.28
2022-09-25T16:21:30.736Z,101059.06
2022-09-25T16:24:02.812Z,101064.09
2022-09-25T16:26:38.456Z,101067.50
2022-09-25T16:29:19.991Z,101065.19
2022-09-25T16:31:48.457Z,101060.28
2022-09-25T16:34:26.177Z,101071.72
2022-09-25T16:36:58.210Z,101069.19
2022-09-25T16:39:31.311Z,101068.50
2022-09-25T16:42:00.175Z,101073.28
2022-09-25T16:44:46.805Z,101068.28
2022-09-25T16:47:18.839Z,101074.94
2022-09-25T16:49:47.064Z,101072.97
2022-09-25T16:52:20.594Z,101061.66
2022-09-25T16:54:56.853Z,101069.09
2022-09-25T16:57:27.859Z,101072.59
2022-09-25T16:59:55.639Z,101071.78
2022-09-25T17:02:33.322Z,101062.09
2022-09-25T17:05:04.810Z,101067.47
2022-09-25T17:07:32.530Z,101057.81
2022-09-25T17:10:01.569Z,101066.88
2022-09-25T17:12:31.455Z,101065.25
2022-09-25T17:14:59.475Z,101058.28
2022-09-25T17:17:26.937Z,101056.41
2022-09-25T17:19:54.196Z,101061.53
2022-09-25T17:22:24.670Z,101056.19
2022-09-25T17:24:52.095Z,101065.72
2022-09-25T17:27:20.733Z,101054.66
2022-09-25T17:29:48.180Z,101050.59
2022-09-25T17:32:18.926Z,101048.16
2022-09-25T17:34:46.908Z,101052.94
2022-09-25T17:40:07.187Z,101051.09
2022-09-25T17:42:35.852Z,101047.34
2022-09-25T17:45:11.145Z,101053.28
2022-09-25T17:47:38.529Z,101046.31
2022-09-25T17:50:07.119Z,101046.88
2022-09-25T17:52:34.405Z,101050.59
2022-09-25T17:55:01.646Z,101045.25
2022-09-25T17:57:29.504Z,101046.88
2022-09-25T17:59:58.905Z,101042.56
2022-09-25T18:02:29.027Z,101034.22
2022-09-25T18:04:56.346Z,101042.13
2022-09-25T18:07:23.741Z,101047.09
2022-09-25T18:09:51.057Z,101036.06
2022-09-25T18:12:18.279Z,101034.94
2022-09-25T18:14:46.236Z,101045.25
2022-09-25T18:17:15.904Z,101036.09
2022-09-25T18:20:02.200Z,101030.63
2022-09-25T18:22:29.458Z,101032.00
2022-09-25T18:24:57.185Z,101033.16
2022-09-25T18:27:28.263Z,101027.94
2022-09-25T18:29:56.058Z,101023.75
2022-09-25T18:32:24.981Z,101027.91
2022-09-25T18:34:52.324Z,101031.03
2022-09-25T18:37:20.555Z,101022.63
2022-09-25T18:39:48.162Z,101030.06
2022-09-25T18:42:15.800Z,101030.06
2022-09-25T18:44:43.424Z,101020.91
2022-09-25T18:47:11.303Z,101018.09
2022-09-25T18:49:40.101Z,101012.63
2022-09-25T18:52:07.465Z,101003.66
2022-09-25T18:54:34.992Z,101004.91
2022-09-25T18:57:02.536Z,101002.13
2022-09-25T18:59:29.991Z,101000.13
2022-09-25T19:01:57.583Z,100996.06
2022-09-25T19:04:25.945Z,100991.19
2022-09-25T19:06:54.639Z,100992.66
2022-09-25T19:09:27.424Z,100988.59
2022-09-25T19:11:55.381Z,100987.00
2022-09-25T19:14:24.016Z,100998.50
2022-09-25T19:16:53.124Z,100986.16
2022-09-25T19:19:20.669Z,100980.81
2022-09-25T19:21:48.169Z,100976.31
2022-09-25T19:24:18.445Z,100967.47
2022-09-25T19:26:45.792Z,100967.47
2022-09-25T19:29:13.113Z,100967.91
2022-09-25T19:31:41.147Z,100966.75
2022-09-25T19:34:09.265Z,100967.69
2022-09-25T19:36:37.809Z,100959.53
2022-09-25T19:39:06.996Z,100962.88
2022-09-25T19:41:37.966Z,100964.59
2022-09-25T19:44:12.924Z,100957.47
2022-09-25T19:46:41.968Z,100957.19
2022-09-25T19:49:09.938Z,100962.00
2022-09-25T19:51:39.202Z,100957.69
2022-09-25T19:54:08.030Z,100957.81
2022-09-25T19:56:40.743Z,100958.44
2022-09-25T19:59:12.684Z,100961.47
2022-09-25T20:01:40.714Z,100951.72
2022-09-25T20:04:10.210Z,100946.84
2022-09-25T20:06:39.447Z,100949.34
2022-09-25T20:09:08.038Z,100946.75
2022-09-25T20:11:36.771Z,100948.44
2022-09-25T20:14:07.494Z,100945.75
2022-09-25T20:16:37.305Z,100945.34
2022-09-25T20:19:06.829Z,100946.75
2022-09-25T20:21:37.163Z,100944.88
2022-09-25T20:24:07.471Z,100940.59
2022-09-25T20:26:36.730Z,100938.94
2022-09-25T20:29:08.815Z,100941.63
2022-09-25T20:31:39.188Z,100934.69
2022-09-25T20:34:07.088Z,100926.06
2022-09-25T20:36:36.283Z,100932.69
2022-09-25T20:39:03.792Z,100926.53
2022-09-25T20:41:31.470Z,100923.84
2022-09-25T20:44:00.577Z,100922.81
2022-09-25T20:46:28.183Z,100922.81
2022-09-25T20:49:00.693Z,100917.47
2022-09-25T20:51:30.903Z,100919.13
2022-09-25T20:54:00.758Z,100918.69
2022-09-25T20:56:30.242Z,100920.88
2022-09-25T20:59:00.334Z,100919.94
2022-09-25T21:01:30.745Z,100917.94
2022-09-25T21:04:01.330Z,100918.38
2022-09-25T21:06:32.423Z,100921.69
2022-09-25T21:09:02.821Z,100917.63
2022-09-25T21:11:33.000Z,100921.31
2022-09-25T21:14:03.718Z,100920.13
2022-09-25T21:16:33.483Z,100914.19
2022-09-25T21:19:04.766Z,100917.28
2022-09-25T21:21:34.391Z,100912.84
2022-09-25T21:24:02.620Z,100904.25
2022-09-25T21:26:32.674Z,100900.38
2022-09-25T21:29:04.261Z,100898.38
2022-09-25T21:31:35.357Z,100890.47
2022-09-25T21:34:03.312Z,100890.53
2022-09-25T21:36:31.414Z,100892.44
2022-09-25T21:39:00.230Z,100893.53
2022-09-25T21:41:30.034Z,100888.31
2022-09-25T21:44:01.935Z,100888.41
2022-09-25T21:46:30.010Z,100881.09
2022-09-25T21:48:59.754Z,100869.69
2022-09-25T21:51:29.639Z,100870.16
2022-09-25T21:53:57.215Z,100875.72
2022-09-25T21:56:26.936Z,100879.47
2022-09-25T21:58:57.447Z,100873.16
2022-09-25T22:01:28.627Z,100868.28
2022-09-25T22:03:57.947Z,100863.00
2022-09-25T22:06:28.351Z,100867.09
2022-09-25T22:08:59.435Z,100856.91
2022-09-25T22:11:28.216Z,100860.78
2022-09-25T22:13:57.778Z,100857.34
2022-09-25T22:16:30.350Z,100859.38
2022-09-25T22:19:01.645Z,100854.09
2022-09-25T22:21:31.576Z,100854.47
2022-09-25T22:23:59.317Z,100857.53
2022-09-25T22:26:28.248Z,100852.25
2022-09-25T22:28:56.048Z,100842.25
2022-09-25T22:31:27.292Z,100836.94
2022-09-25T22:33:57.576Z,100833.69
2022-09-25T22:36:27.358Z,100834.28
2022-09-25T22:38:55.308Z,100818.97
2022-09-25T22:41:24.387Z,100831.22
2022-09-25T22:43:53.811Z,100823.28
2022-09-25T22:46:23.978Z,100821.22
2022-09-25T22:48:53.183Z,100822.22
2022-09-25T22:51:22.622Z,100816.50
2022-09-25T22:53:50.438Z,100822.03
2022-09-25T22:56:20.574Z,100815.72
2022-09-25T22:58:51.447Z,100812.44
2022-09-25T23:01:23.026Z,100800.63
2022-09-25T23:03:56.138Z,100803.47
2022-09-25T23:06:24.392Z,100794.50
2022-09-25T23:08:53.077Z,100788.38
2022-09-25T23:11:21.882Z,100795.91
2022-09-25T23:13:50.645Z,100782.84
2022-09-25T23:16:18.501Z,100777.09
2022-09-25T23:18:45.974Z,100781.81
2022-09-25T23:21:14.604Z,100774.88
2022-09-25T23:23:41.935Z,100781.59
2022-09-25T23:26:09.466Z,100768.56
2022-09-25T23:28:40.344Z,100767.13
2022-09-25T23:31:11.013Z,100757.56
2022-09-25T23:33:40.425Z,100756.53
2022-09-25T23:36:11.916Z,100753.66
2022-09-25T23:38:40.906Z,100747.97
2022-09-25T23:41:17.446Z,100749.59
2022-09-25T23:43:46.670Z,100742.25
2022-09-25T23:46:16.356Z,100731.63
2022-09-25T23:48:44.621Z,100731.63
2022-09-25T23:51:13.763Z,100714.47
2022-09-25T23:53:43.836Z,100719.97
2022-09-25T23:56:14.203Z,100713.22
2022-09-25T23:58:42.745Z,100703.44
